Time;durP1;ratioP1;P1;durP2;ratioP2;P2;SDS_P1;SDS_P2;PMS_P1;PMS_P2;Temp;Humidity;BMP_temperature;BMP_pressure;BME280_temperature;BME280_humidity;BME280_pressure;Samples;Min_cycle;Max_cycle;Signal;HPM_P1;HPM_P2
2022/07/05 00:00:16;;;;;;;;;;;;;;;21.74;28.27;97990.72;5036557;28;886;-82
2022/07/05 00:02:41;;;;;;;;;;;;;;;21.67;28.40;97990.94;5036589;28;909;-82
2022/07/05 00:05:07;;;;;;;;;;;;;;;21.65;28.43;97982.06;5036802;28;1942;-82
2022/07/05 00:07:32;;;;;;;;;;;;;;;21.72;28.32;97992.44;5036843;28;912;-82
2022/07/05 00:09:58;;;;;;;;;;;;;;;21.59;28.82;97995.19;5036998;28;822;-82
2022/07/05 00:12:24;;;;;;;;;;;;;;;21.50;28.96;97987.34;5070749;28;971;-82
2022/07/05 00:14:50;;;;;;;;;;;;;;;21.63;28.50;97990.22;5037888;28;898;-81
2022/07/05 00:17:15;;;;;;;;;;;;;;;21.69;28.47;97994.09;5037854;28;803;-82
2022/07/05 00:19:41;;;;;;;;;;;;;;;21.56;28.73;97994.06;5054286;28;947;-82
2022/07/05 00:22:06;;;;;;;;;;;;;;;21.52;28.82;97996.19;5037814;28;1272;-82
2022/07/05 00:24:32;;;;;;;;;;;;;;;21.61;28.60;97987.06;5037565;28;1910;-82
2022/07/05 00:27:00;;;;;;;;;;;;;;;21.59;28.54;97995.19;5036544;28;1197;-82
2022/07/05 00:29:26;;;;;;;;;;;;;;;21.69;28.30;97993.31;5018166;28;1207;-82
2022/07/05 00:31:51;;;;;;;;;;;;;;;21.60;28.45;97985.44;5018265;28;971;-82
2022/07/05 00:34:17;;;;;;;;;;;;;;;21.54;28.81;97984.41;5002190;28;1246;-82
2022/07/05 00:36:42;;;;;;;;;;;;;;;21.63;28.55;97990.22;5018065;28;898;-82
2022/07/05 00:39:08;;;;;;;;;;;;;;;21.71;28.22;97983.16;5001998;28;1155;-82
2022/07/05 00:41:33;;;;;;;;;;;;;;;21.62;28.32;97985.81;5001635;28;1164;-82
2022/07/05 00:44:01;;;;;;;;;;;;;;;21.71;28.23;97980.31;5001200;28;1906;-82
2022/07/05 00:46:26;;;;;;;;;;;;;;;21.65;28.29;97976.41;5018262;28;1115;-82
2022/07/05 00:48:52;;;;;;;;;;;;;;;21.48;28.56;97983.34;4957467;29;1236;-82
2022/07/05 00:51:17;;;;;;;;;;;;;;;21.68;28.24;97986.84;4940760;29;1132;-82
2022/07/05 00:53:43;;;;;;;;;;;;;;;21.62;28.38;97991.47;4940164;29;838;-82
2022/07/05 00:56:11;;;;;;;;;;;;;;;21.70;28.34;97984.38;4940512;29;1168;-82
2022/07/05 00:58:37;;;;;;;;;;;;;;;21.58;28.52;97982.28;4969386;28;1195;-82
2022/07/05 01:01:03;;;;;;;;;;;;;;;21.93;28.28;97969.19;4978739;28;977;-82
2022/07/05 01:03:28;;;;;;;;;;;;;;;21.51;28.55;97976.81;4978616;28;948;-82
2022/07/05 01:05:54;;;;;;;;;;;;;;;21.35;28.88;97985.31;4978612;28;959;-82
2022/07/05 01:08:19;;;;;;;;;;;;;;;21.35;29.00;97980.47;4978492;28;1028;-82
2022/07/05 01:10:45;;;;;;;;;;;;;;;21.46;28.53;97980.19;4978442;28;1010;-82
2022/07/05 01:13:10;;;;;;;;;;;;;;;21.50;28.42;97978.03;4978638;28;1184;-82
2022/07/05 01:15:36;;;;;;;;;;;;;;;21.75;28.29;97972.50;4978414;28;1021;-82
2022/07/05 01:18:01;;;;;;;;;;;;;;;21.51;28.61;97971.16;4978468;28;858;-82
2022/07/05 01:20:27;;;;;;;;;;;;;;;21.55;28.34;97983.16;5025788;28;1038;-82
2022/07/05 01:22:56;;;;;;;;;;;;;;;21.65;28.18;97982.06;5040591;28;947;-82
2022/07/05 01:25:25;;;;;;;;;;;;;;;21.68;28.35;97986.84;5040422;28;1910;-82
2022/07/05 01:27:51;;;;;;;;;;;;;;;21.69;28.11;97976.31;5042903;28;779;-82
2022/07/05 01:30:16;;;;;;;;;;;;;;;21.71;28.30;97974.66;5054631;28;1254;-82
2022/07/05 01:32:42;;;;;;;;;;;;;;;21.69;28.30;97977.13;5071799;28;829;-82
2022/07/05 01:35:08;;;;;;;;;;;;;;;21.61;28.50;97972.91;5071273;28;838;-82
2022/07/05 01:37:34;;;;;;;;;;;;;;;21.50;28.65;97969.53;5070827;28;918;-82
2022/07/05 01:40:01;;;;;;;;;;;;;;;21.66;28.25;97969.53;5071282;28;821;-82
2022/07/05 01:42:26;;;;;;;;;;;;;;;21.54;28.32;97975.91;5071450;28;857;-82
2022/07/05 01:44:52;;;;;;;;;;;;;;;21.52;28.26;97973.53;5033032;28;1909;-82
2022/07/05 01:47:17;;;;;;;;;;;;;;;21.54;28.54;97971.03;5017190;28;770;-82
2022/07/05 01:49:43;;;;;;;;;;;;;;;21.55;28.14;97977.50;5016868;28;940;-82
2022/07/05 01:52:12;;;;;;;;;;;;;;;21.65;28.29;97973.56;5017094;28;858;-81
2022/07/05 01:54:39;;;;;;;;;;;;;;;21.62;28.06;97962.38;5017269;28;1270;-82
2022/07/05 01:57:05;;;;;;;;;;;;;;;21.52;28.35;97967.06;5000826;28;928;-82
2022/07/05 01:59:34;;;;;;;;;;;;;;;21.45;28.49;97962.41;4977390;28;850;-82
2022/07/05 02:02:00;;;;;;;;;;;;;;;21.51;28.55;97959.84;4977405;28;1099;-82
2022/07/05 02:04:25;;;;;;;;;;;;;;;21.67;28.04;97961.81;4961370;28;1914;-82
2022/07/05 02:06:51;;;;;;;;;;;;;;;21.54;28.07;97971.03;4977446;28;924;-82
2022/07/05 02:09:16;;;;;;;;;;;;;;;21.59;28.07;97964.03;4977481;28;1164;-82
2022/07/05 02:11:42;;;;;;;;;;;;;;;21.70;28.01;97970.22;4958284;29;1266;-82
2022/07/05 02:14:07;;;;;;;;;;;;;;;21.59;28.19;97964.84;4958003;29;880;-82
2022/07/05 02:16:36;;;;;;;;;;;;;;;21.51;28.08;97976.81;4970369;28;1182;-82
2022/07/05 02:19:02;;;;;;;;;;;;;;;21.56;28.19;97967.78;4977561;28;979;-82
2022/07/05 02:21:31;;;;;;;;;;;;;;;21.63;27.97;97967.59;4977377;28;1064;-82
2022/07/05 02:23:57;;;;;;;;;;;;;;;21.50;28.13;97975.19;4961391;28;1914;-82
2022/07/05 02:26:25;;;;;;;;;;;;;;;21.40;28.28;97976.28;4989130;28;1245;-82
2022/07/05 02:28:51;;;;;;;;;;;;;;;21.66;27.95;97986.53;4957821;28;1298;-82
2022/07/05 02:31:19;;;;;;;;;;;;;;;21.58;28.11;97982.28;4989956;28;791;-82
2022/07/05 02:33:46;;;;;;;;;;;;;;;21.52;28.10;97986.91;4964372;28;1242;-82
2022/07/05 02:36:12;;;;;;;;;;;;;;;21.67;28.14;97985.28;4989908;28;1374;-82
2022/07/05 02:38:38;;;;;;;;;;;;;;;21.59;28.07;97989.53;4973774;28;786;-82
2022/07/05 02:41:07;;;;;;;;;;;;;;;21.64;27.90;97988.97;4973588;28;915;-82
2022/07/05 02:43:34;;;;;;;;;;;;;;;21.44;28.22;97988.31;4990332;28;1914;-82
2022/07/05 02:46:00;;;;;;;;;;;;;;;21.41;28.47;97986.38;4993511;28;1146;-82
2022/07/05 02:48:26;;;;;;;;;;;;;;;21.50;28.10;97987.34;5030802;28;1125;-82
2022/07/05 02:50:51;;;;;;;;;;;;;;;21.67;27.97;97981.66;5085536;28;930;-82
2022/07/05 02:53:17;;;;;;;;;;;;;;;21.62;27.89;97985.03;5038008;28;837;-82
2022/07/05 02:55:42;;;;;;;;;;;;;;;21.65;27.88;97993.41;5035450;28;1120;-82
2022/07/05 02:58:08;;;;;;;;;;;;;;;21.47;28.24;97981.78;5034927;28;1483;-82
2022/07/05 03:00:34;;;;;;;;;;;;;;;21.57;27.96;97980.69;5035857;28;991;-82
2022/07/05 03:02:59;;;;;;;;;;;;;;;21.36;28.25;97986.91;5035755;28;1261;-82
2022/07/05 03:05:27;;;;;;;;;;;;;;;21.50;28.15;97993.00;5035306;28;1981;-82
2022/07/05 03:07:58;;;;;;;;;;;;;;;21.59;27.91;97983.88;5035350;28;1098;-82
2022/07/05 03:10:25;;;;;;;;;;;;;;;21.53;28.06;97988.47;5035424;28;961;-82
2022/07/05 03:12:52;;;;;;;;;;;;;;;21.43;28.23;97995.22;5035279;28;1063;-82
2022/07/05 03:15:18;;;;;;;;;;;;;;;21.26;28.51;97992.38;5035558;28;1119;-82
2022/07/05 03:17:43;;;;;;;;;;;;;;;21.62;28.18;97993.53;5035059;28;816;-82
2022/07/05 03:20:10;;;;;;;;;;;;;;;21.50;28.49;97992.19;5014910;28;1309;-82
2022/07/05 03:22:36;;;;;;;;;;;;;;;21.66;27.90;97997.84;5031955;28;1262;-82
2022/07/05 03:25:02;;;;;;;;;;;;;;;21.56;28.07;97996.88;5015417;28;1967;-82
2022/07/05 03:31:04;;;;;;;;;;;;;;;21.62;28.09;97999.97;5015072;28;861;-82
2022/07/05 03:33:36;;;;;;;;;;;;;;;21.77;27.77;98003.22;5016126;28;1353;-82
2022/07/05 03:36:04;;;;;;;;;;;;;;;21.50;28.17;97997.84;5015145;28;1319;-82
2022/07/05 03:38:30;;;;;;;;;;;;;;;21.49;28.49;97996.25;4998974;28;1186;-82
2022/07/05 03:40:55;;;;;;;;;;;;;;;21.55;28.05;98002.97;5014718;28;1179;-82
2022/07/05 03:43:23;;;;;;;;;;;;;;;21.43;28.29;98000.88;5033307;28;1479;-79
2022/07/05 03:45:49;;;;;;;;;;;;;;;21.43;28.29;97998.84;5051106;28;1959;-80
2022/07/05 03:48:15;;;;;;;;;;;;;;;21.47;28.25;97998.75;5051137;28;1246;-79
2022/07/05 03:50:41;;;;;;;;;;;;;;;21.50;28.17;98006.34;5035277;28;755;-80
2022/07/05 03:53:07;;;;;;;;;;;;;;;21.57;28.17;97992.03;5035890;28;1193;-80
2022/07/05 03:55:34;;;;;;;;;;;;;;;21.54;28.40;98004.22;5035528;28;1274;-80
2022/07/05 03:58:00;;;;;;;;;;;;;;;21.43;28.68;97993.19;5059052;28;1476;-80
2022/07/05 04:00:25;;;;;;;;;;;;;;;21.64;28.35;97997.47;5058880;28;1034;-80
2022/07/05 04:02:59;;;;;;;;;;;;;;;21.54;28.32;98004.22;5062077;28;1260;-80
2022/07/05 04:05:25;;;;;;;;;;;;;;;21.50;28.29;97995.84;5078391;28;1914;-79
2022/07/05 04:07:51;;;;;;;;;;;;;;;21.69;28.11;97996.94;5078473;28;856;-80
2022/07/05 04:10:18;;;;;;;;;;;;;;;21.82;28.17;97997.81;5057744;28;1369;-78
2022/07/05 04:12:44;;;;;;;;;;;;;;;21.70;28.24;98006.22;5074400;28;1312;-80
2022/07/05 04:15:11;;;;;;;;;;;;;;;21.62;28.47;97994.31;5034662;28;1319;-79
2022/07/05 04:17:55;;;;;;;;;;;;;;;21.41;28.61;98006.19;5002600;28;1095;-79
2022/07/05 04:20:24;;;;;;;;;;;;;;;21.56;28.32;97998.94;4976076;28;1345;-79
2022/07/05 04:22:50;;;;;;;;;;;;;;;21.84;28.03;98003.00;4959926;29;1144;-80
2022/07/05 04:25:17;;;;;;;;;;;;;;;21.77;28.24;98011.72;4959887;28;1914;-80
2022/07/05 04:27:48;;;;;;;;;;;;;;;21.69;28.28;98008.25;4960095;28;1124;-80
2022/07/05 04:30:14;;;;;;;;;;;;;;;21.55;28.35;98006.63;4943475;28;1324;-80
2022/07/05 04:32:40;;;;;;;;;;;;;;;21.71;28.73;98002.16;4959950;29;943;-79
2022/07/05 04:35:06;;;;;;;;;;;;;;;21.68;28.54;98003.06;4959840;28;1155;-79
2022/07/05 04:37:33;;;;;;;;;;;;;;;21.81;28.26;98001.06;4944481;29;1327;-79
2022/07/05 04:39:58;;;;;;;;;;;;;;;21.81;28.18;97996.22;4959703;28;1259;-79
2022/07/05 04:42:24;;;;;;;;;;;;;;;21.70;28.50;98000.56;4959602;29;828;-79
2022/07/05 04:44:49;;;;;;;;;;;;;;;21.68;28.71;98006.69;4958621;28;1982;-79
2022/07/05 04:47:15;;;;;;;;;;;;;;;21.61;28.94;98011.75;4922110;28;1131;-79
2022/07/05 04:49:41;;;;;;;;;;;;;;;21.68;28.57;98003.84;4927310;28;1187;-79
2022/07/05 04:52:06;;;;;;;;;;;;;;;21.76;28.45;98007.28;4959247;28;857;-79
2022/07/05 04:54:33;;;;;;;;;;;;;;;21.64;28.87;98008.00;5010643;28;1389;-80
2022/07/05 04:56:58;;;;;;;;;;;;;;;21.64;28.71;98008.00;5018375;28;1118;-79
2022/07/05 04:59:23;;;;;;;;;;;;;;;21.69;28.72;98005.44;5057634;28;1341;-79
2022/07/05 05:01:49;;;;;;;;;;;;;;;21.61;28.83;98009.72;5060122;28;1366;-80
2022/07/05 05:04:14;;;;;;;;;;;;;;;21.85;28.36;98013.88;5077154;28;1985;-79
2022/07/05 05:06:40;;;;;;;;;;;;;;;21.77;28.46;98011.72;5060760;28;1262;-80
2022/07/05 05:09:05;;;;;;;;;;;;;;;21.61;29.12;98009.72;5077442;28;916;-80
2022/07/05 05:11:31;;;;;;;;;;;;;;;21.65;28.80;98010.38;5076872;28;876;-79
2022/07/05 05:13:56;;;;;;;;;;;;;;;21.92;28.65;98017.78;5076708;28;1009;-79
2022/07/05 05:16:22;;;;;;;;;;;;;;;21.93;28.28;98022.22;5072074;28;1406;-79
2022/07/05 05:18:47;;;;;;;;;;;;;;;21.73;28.68;98016.69;5091878;28;896;-79
2022/07/05 05:21:13;;;;;;;;;;;;;;;21.81;28.55;98021.72;5076772;28;899;-79
2022/07/05 05:23:38;;;;;;;;;;;;;;;22.05;28.08;98015.78;5044118;28;888;-79
2022/07/05 05:26:03;;;;;;;;;;;;;;;21.88;28.54;98011.44;5076780;28;1996;-79
2022/07/05 05:28:29;;;;;;;;;;;;;;;21.82;28.57;98026.13;5076906;28;930;-84
2022/07/05 05:30:54;;;;;;;;;;;;;;;21.60;29.17;98019.41;5035726;28;1476;-79
2022/07/05 05:33:20;;;;;;;;;;;;;;;21.82;28.72;98020.47;5000682;28;949;-79
2022/07/05 05:35:45;;;;;;;;;;;;;;;21.66;28.96;98023.34;5017051;28;915;-79
2022/07/05 05:38:11;;;;;;;;;;;;;;;21.87;29.04;98024.00;5017402;28;882;-79
2022/07/05 05:40:41;;;;;;;;;;;;;;;21.76;28.89;98010.09;5000771;28;888;-79
2022/07/05 05:43:06;;;;;;;;;;;;;;;21.92;28.95;98020.63;5017194;28;1218;-79
2022/07/05 05:45:32;;;;;;;;;;;;;;;21.83;29.02;98012.75;5016740;28;1988;-79
2022/07/05 05:47:57;;;;;;;;;;;;;;;21.84;28.93;98012.31;5033472;28;874;-79
2022/07/05 05:50:24;;;;;;;;;;;;;;;21.62;29.41;98016.16;5035188;28;842;-82
2022/07/05 05:52:49;;;;;;;;;;;;;;;21.59;29.36;98012.19;5065854;28;789;-78
2022/07/05 05:55:15;;;;;;;;;;;;;;;21.90;28.84;98014.59;5038499;28;900;-78
2022/07/05 05:57:40;;;;;;;;;;;;;;;22.05;29.32;98021.44;5038406;28;846;-78
2022/07/05 06:00:06;;;;;;;;;;;;;;;22.33;29.74;98015.00;5048198;28;1419;-68
2022/07/05 06:02:37;;;;;;;;;;;;;;;22.53;31.59;98025.34;5060598;28;1089;-70
2022/07/05 06:05:02;;;;;;;;;;;;;;;22.74;32.29;98021.88;5057552;28;1985;-70
2022/07/05 06:07:28;;;;;;;;;;;;;;;22.72;33.06;98024.38;5057968;28;994;-69
2022/07/05 06:09:53;;;;;;;;;;;;;;;23.02;33.46;98020.22;5057666;28;850;-69
2022/07/05 06:12:19;;;;;;;;;;;;;;;23.05;33.97;98029.84;5057332;28;916;-72
2022/07/05 06:14:44;;;;;;;;;;;;;;;22.83;34.10;98022.00;5047627;28;1451;-73
2022/07/05 06:17:10;;;;;;;;;;;;;;;23.06;33.84;98025.78;5037584;28;1419;-74
2022/07/05 06:19:35;;;;;;;;;;;;;;;23.20;34.31;98025.31;5037439;28;939;-69
2022/07/05 06:22:01;;;;;;;;;;;;;;;23.47;34.48;98021.19;5037690;28;1039;-71
2022/07/05 06:24:26;;;;;;;;;;;;;;;23.18;34.89;98022.13;5067411;28;1902;-67
2022/07/05 06:26:51;;;;;;;;;;;;;;;23.37;34.60;98029.63;5036967;28;951;-69
2022/07/05 06:29:17;;;;;;;;;;;;;;;23.54;34.66;98026.63;5037066;28;945;-69
2022/07/05 06:31:42;;;;;;;;;;;;;;;23.47;34.55;98024.03;5052602;28;1627;-67
2022/07/05 06:34:08;;;;;;;;;;;;;;;23.57;34.81;98025.69;5056037;28;1035;-70
2022/07/05 06:36:33;;;;;;;;;;;;;;;23.51;34.87;98024.69;5057072;28;1010;-70
2022/07/05 06:38:59;;;;;;;;;;;;;;;23.53;34.54;98025.84;5057119;28;943;-70
2022/07/05 06:41:24;;;;;;;;;;;;;;;23.52;34.59;98034.78;5088512;28;1114;-72
2022/07/05 06:43:49;;;;;;;;;;;;;;;23.34;34.44;98019.16;5056945;28;1968;-71
2022/07/05 06:46:22;;;;;;;;;;;;;;;23.42;34.18;98019.72;5041385;28;1546;-72
2022/07/05 06:48:48;;;;;;;;;;;;;;;23.42;34.04;98018.94;5036760;28;1363;-71
2022/07/05 06:51:13;;;;;;;;;;;;;;;23.51;34.00;98021.84;5037162;28;939;-77
2022/07/05 06:53:39;;;;;;;;;;;;;;;22.99;34.00;98028.84;5035723;28;945;-77
2022/07/05 06:56:04;;;;;;;;;;;;;;;22.67;33.90;98022.09;5036894;28;935;-77
2022/07/05 06:58:30;;;;;;;;;;;;;;;22.51;33.75;98016.50;5035535;28;903;-77
2022/07/05 07:00:55;;;;;;;;;;;;;;;22.43;33.08;98020.78;5035675;28;964;-76
2022/07/05 07:03:21;;;;;;;;;;;;;;;22.14;33.19;98018.00;5033655;28;1614;-76
2022/07/05 07:05:46;;;;;;;;;;;;;;;22.31;32.60;98017.47;5044980;28;1961;-77
2022/07/05 07:10:55;;;;;;;;;;;;;;;22.05;32.37;98024.28;5040961;28;1473;-77
2022/07/05 07:13:21;;;;;;;;;;;;;;;22.67;32.33;98026.97;5044430;28;1544;-70
2022/07/05 07:15:47;;;;;;;;;;;;;;;22.96;33.10;98033.38;5064160;28;1384;-73
2022/07/05 07:18:13;;;;;;;;;;;;;;;23.46;32.67;98042.31;5045833;28;1710;-76
2022/07/05 07:20:39;;;;;;;;;;;;;;;23.56;32.42;98030.59;5042697;28;1486;-73
2022/07/05 07:23:04;;;;;;;;;;;;;;;23.62;32.62;98036.47;5044415;28;1492;-71
2022/07/05 07:25:30;;;;;;;;;;;;;;;23.85;32.72;98038.16;5042403;28;1915;-77
2022/07/05 07:27:55;;;;;;;;;;;;;;;23.68;32.71;98036.75;5016920;28;1551;-73
2022/07/05 07:30:22;;;;;;;;;;;;;;;23.73;32.77;98036.97;5039651;28;1305;-71
2022/07/05 07:32:47;;;;;;;;;;;;;;;23.71;32.53;98042.28;5042541;28;1676;-73
2022/07/05 07:35:13;;;;;;;;;;;;;;;23.75;32.26;98042.16;5067046;28;1490;-72
2022/07/05 07:37:38;;;;;;;;;;;;;;;23.88;32.39;98034.38;5073179;28;1461;-73
2022/07/05 07:40:04;;;;;;;;;;;;;;;24.47;32.21;98040.41;5073061;28;1472;-74
2022/07/05 07:42:30;;;;;;;;;;;;;;;24.77;31.16;98050.25;5073481;28;1512;-71
2022/07/05 07:44:55;;;;;;;;;;;;;;;24.36;31.53;98050.16;5072402;28;1906;-72
2022/07/05 07:47:35;;;;;;;;;;;;;;;24.20;32.29;98056.00;5150509;27;1587;-82
2022/07/05 07:50:01;;;;;;;;;;;;;;;24.29;31.70;98047.50;5105389;28;1608;-75
2022/07/05 07:52:26;;;;;;;;;;;;;;;24.06;32.38;98057.28;5091570;28;1235;-80
2022/07/05 07:54:52;;;;;;;;;;;;;;;24.48;31.36;98047.69;5093261;28;1616;-80
2022/07/05 07:57:18;;;;;;;;;;;;;;;24.31;31.34;98053.56;5080247;28;1432;-79
2022/07/05 07:59:44;;;;;;;;;;;;;;;24.33;31.14;98051.03;5082961;28;1732;-80
2022/07/05 08:02:10;;;;;;;;;;;;;;;24.15;31.56;98053.75;5080263;28;1543;-71
2022/07/05 08:04:35;;;;;;;;;;;;;;;23.78;32.41;98064.78;5084502;28;1578;-72
2022/07/05 08:07:03;;;;;;;;;;;;;;;23.81;32.43;98063.84;5078562;28;1913;-71
2022/07/05 08:09:29;;;;;;;;;;;;;;;24.05;32.10;98061.41;5085780;28;1658;-78
2022/07/05 08:11:54;;;;;;;;;;;;;;;24.42;31.59;98062.50;5091977;28;1571;-75
2022/07/05 08:14:20;;;;;;;;;;;;;;;24.16;31.55;98055.31;5084317;28;1520;-73
2022/07/05 08:16:46;;;;;;;;;;;;;;;23.72;32.70;98065.81;5084285;28;1519;-76
2022/07/05 08:21:55;;;;;;;;;;;;;;;23.80;32.80;98067.94;5081466;28;1713;-73
2022/07/05 08:24:21;;;;;;;;;;;;;;;24.54;31.25;98062.91;5081655;28;1317;-74
2022/07/05 08:26:46;;;;;;;;;;;;;;;24.17;32.06;98063.38;5084345;28;1897;-73
2022/07/05 08:29:12;;;;;;;;;;;;;;;24.28;32.16;98071.53;5084228;28;1713;-74
2022/07/05 08:31:38;;;;;;;;;;;;;;;24.33;32.17;98065.25;5083299;28;1513;-81
2022/07/05 08:34:04;;;;;;;;;;;;;;;24.61;31.50;98062.66;5074933;28;1473;-74
2022/07/05 08:36:29;;;;;;;;;;;;;;;24.55;31.61;98070.16;5081395;28;1524;-76
2022/07/05 08:38:55;;;;;;;;;;;;;;;24.58;31.79;98070.03;5080128;28;1552;-76
2022/07/05 08:41:20;;;;;;;;;;;;;;;24.62;31.65;98076.41;5078931;28;1701;-73
2022/07/05 08:43:46;;;;;;;;;;;;;;;24.64;32.02;98073.09;5078746;28;1482;-77
2022/07/05 08:46:12;;;;;;;;;;;;;;;25.13;31.05;98069.59;5084013;28;1890;-86
2022/07/05 08:48:43;;;;;;;;;;;;;;;24.89;31.24;98060.75;5070802;28;1533;-82
2022/07/05 08:51:12;;;;;;;;;;;;;;;24.74;31.49;98054.81;5079114;28;1523;-85
2022/07/05 08:53:38;;;;;;;;;;;;;;;24.64;31.69;98068.19;5076044;28;1377;-77
2022/07/05 08:56:04;;;;;;;;;;;;;;;24.89;31.06;98067.22;5078448;28;1532;-78
2022/07/05 08:58:30;;;;;;;;;;;;;;;24.98;30.32;98069.34;5072742;28;1528;-74
2022/07/05 09:00:55;;;;;;;;;;;;;;;24.58;31.00;98063.56;5076046;28;1062;-72
2022/07/05 09:03:21;;;;;;;;;;;;;;;24.45;31.31;98065.66;5075929;28;2093;-74
2022/07/05 09:05:46;;;;;;;;;;;;;;;24.40;31.17;98064.25;5071786;28;1894;-78
2022/07/05 09:08:14;;;;;;;;;;;;;;;24.50;30.95;98062.22;5035070;28;1665;-79
2022/07/05 09:10:39;;;;;;;;;;;;;;;24.36;30.95;98057.88;5019821;28;1077;-71
2022/07/05 09:13:05;;;;;;;;;;;;;;;24.50;31.44;98062.22;5035853;28;1154;-80
2022/07/05 09:15:30;;;;;;;;;;;;;;;24.18;31.61;98058.50;5035533;28;1194;-72
2022/07/05 09:17:55;;;;;;;;;;;;;;;24.14;31.23;98063.53;5035704;28;941;-71
2022/07/05 09:20:21;;;;;;;;;;;;;;;24.21;31.26;98056.78;5035498;28;1687;-72
2022/07/05 09:22:47;;;;;;;;;;;;;;;24.06;31.59;98067.88;5044144;28;1745;-72
2022/07/05 09:25:14;;;;;;;;;;;;;;;24.12;31.62;98066.03;5032642;28;1902;-72
2022/07/05 09:27:46;;;;;;;;;;;;;;;24.12;31.57;98066.81;5040458;28;1969;-71
2022/07/05 09:30:12;;;;;;;;;;;;;;;24.22;31.12;98064.84;5057247;28;1066;-72
2022/07/05 09:32:37;;;;;;;;;;;;;;;24.31;30.95;98059.25;5090143;28;1053;-72
2022/07/05 09:35:19;;;;;;;;;;;;;;;23.74;32.00;98052.75;5057898;28;948;-72
2022/07/05 09:37:44;;;;;;;;;;;;;;;23.42;32.21;98047.34;5057169;28;1024;-72
2022/07/05 09:40:10;;;;;;;;;;;;;;;23.70;32.27;98056.97;5057482;28;1077;-72
2022/07/05 09:42:35;;;;;;;;;;;;;;;23.90;31.75;98044.06;5056061;28;1751;-71
2022/07/05 09:45:01;;;;;;;;;;;;;;;24.07;31.31;98053.19;5057900;28;941;-72
2022/07/05 09:47:29;;;;;;;;;;;;;;;24.07;31.30;98038.19;5057236;28;2004;-71
2022/07/05 09:49:56;;;;;;;;;;;;;;;24.19;30.99;98034.50;5057447;28;1075;-71
2022/07/05 09:52:27;;;;;;;;;;;;;;;24.20;31.09;98041.78;5056920;28;1043;-73
2022/07/05 09:55:12;;;;;;;;;;;;;;;24.43;31.05;98032.81;5057371;28;997;-72
2022/07/05 09:57:40;;;;;;;;;;;;;;;24.18;31.30;98041.44;5088093;28;1504;-73
2022/07/05 10:00:09;;;;;;;;;;;;;;;24.33;31.01;98036.81;5057491;28;1206;-73
2022/07/05 10:02:38;;;;;;;;;;;;;;;24.27;31.25;98032.19;5057408;28;1055;-73
2022/07/05 10:05:10;;;;;;;;;;;;;;;24.38;30.98;98032.59;5055536;28;1887;-73
2022/07/05 10:07:36;;;;;;;;;;;;;;;24.13;31.15;98033.50;5054448;28;1130;-74
2022/07/05 10:10:02;;;;;;;;;;;;;;;24.01;32.07;98031.50;5053820;28;1000;-72
2022/07/05 10:12:27;;;;;;;;;;;;;;;24.43;31.52;98041.34;5036808;28;1830;-74
2022/07/05 10:14:53;;;;;;;;;;;;;;;24.04;32.05;98041.97;5050754;28;2025;-75
2022/07/05 10:17:18;;;;;;;;;;;;;;;24.57;30.81;98033.53;5034515;28;1164;-75
2022/07/05 10:19:44;;;;;;;;;;;;;;;24.60;30.78;98032.59;5034752;28;1078;-75
2022/07/05 10:22:09;;;;;;;;;;;;;;;24.41;30.94;98046.72;5034509;28;1006;-75
2022/07/05 10:24:36;;;;;;;;;;;;;;;23.99;32.02;98039.72;5044106;28;1649;-74
2022/07/05 10:27:02;;;;;;;;;;;;;;;23.85;32.13;98035.31;5036748;28;1910;-72
2022/07/05 10:29:27;;;;;;;;;;;;;;;23.83;32.80;98044.31;5037289;28;1335;-73
2022/07/05 10:31:52;;;;;;;;;;;;;;;24.19;32.12;98040.19;5035348;28;1788;-73
2022/07/05 10:34:18;;;;;;;;;;;;;;;24.18;32.06;98044.28;5049374;28;1486;-73
2022/07/05 10:36:43;;;;;;;;;;;;;;;24.36;31.70;98041.63;5038614;28;1127;-73
2022/07/05 10:39:09;;;;;;;;;;;;;;;24.37;31.55;98036.72;5046054;28;1187;-72
2022/07/05 10:41:34;;;;;;;;;;;;;;;24.34;31.10;98027.03;5056536;28;856;-82
2022/07/05 10:44:00;;;;;;;;;;;;;;;24.03;31.20;98031.84;5073638;28;818;-82
2022/07/05 10:46:35;;;;;;;;;;;;;;;23.70;31.41;98034.22;5089916;28;1909;-82
2022/07/05 10:49:10;;;;;;;;;;;;;;;23.71;30.86;98030.91;5087497;28;1450;-82
2022/07/05 10:51:36;;;;;;;;;;;;;;;23.66;30.70;98020.13;5088717;28;1359;-82
2022/07/05 10:54:03;;;;;;;;;;;;;;;23.71;30.39;98022.41;5052406;28;1350;-82
2022/07/05 10:56:28;;;;;;;;;;;;;;;23.73;30.04;98019.13;5089426;28;880;-81
2022/07/05 10:59:08;;;;;;;;;;;;;;;23.63;29.93;98035.28;5095058;28;1064;-82
2022/07/05 11:01:35;;;;;;;;;;;;;;;23.57;29.91;98025.69;5062150;28;1139;-84
2022/07/05 11:04:00;;;;;;;;;;;;;;;23.48;29.58;98026.41;5077664;28;1789;-84
2022/07/05 11:06:26;;;;;;;;;;;;;;;23.49;29.59;98018.69;5094948;28;1906;-83
2022/07/05 11:09:05;;;;;;;;;;;;;;;23.24;30.01;98023.16;5054406;28;970;-83
2022/07/05 11:11:33;;;;;;;;;;;;;;;23.45;29.47;98018.00;5054728;28;742;-83
2022/07/05 11:13:59;;;;;;;;;;;;;;;23.34;29.40;98016.31;5046377;28;1430;-83
2022/07/05 11:16:25;;;;;;;;;;;;;;;23.35;29.32;98015.06;5018613;28;688;-86
2022/07/05 11:22:25;;;;;;;;;;;;;;;23.34;28.82;98019.16;5034578;28;945;-83
2022/07/05 11:24:51;;;;;;;;;;;;;;;23.37;28.92;98012.59;4998592;28;943;-83
2022/07/05 11:27:16;;;;;;;;;;;;;;;23.44;28.81;98016.44;4998702;28;1914;-83
2022/07/05 11:29:45;;;;;;;;;;;;;;;23.29;28.53;98010.44;4951717;28;1349;-83
2022/07/05 11:32:11;;;;;;;;;;;;;;;23.25;28.57;98016.22;4953456;28;1263;-83
2022/07/05 11:34:36;;;;;;;;;;;;;;;23.06;29.12;98008.75;4991021;28;1299;-84
2022/07/05 11:37:11;;;;;;;;;;;;;;;23.25;28.70;98010.53;4975878;28;907;-83
2022/07/05 11:39:36;;;;;;;;;;;;;;;23.07;28.86;98016.00;4991257;28;1350;-84
2022/07/05 11:42:02;;;;;;;;;;;;;;;23.17;28.63;98014.88;4998306;28;826;-83
2022/07/05 11:44:30;;;;;;;;;;;;;;;23.37;28.26;98006.09;4975335;28;920;-83
2022/07/05 11:46:56;;;;;;;;;;;;;;;23.04;28.73;97997.84;4959197;28;1977;-83
2022/07/05 11:49:22;;;;;;;;;;;;;;;23.13;28.26;97997.16;4940055;29;1309;-84
2022/07/05 11:51:54;;;;;;;;;;;;;;;23.16;28.36;98001.94;4940283;29;954;-83
2022/07/05 11:54:23;;;;;;;;;;;;;;;23.17;28.58;98003.53;4956482;29;1011;-83
2022/07/05 11:56:50;;;;;;;;;;;;;;;23.08;28.40;97989.22;4974808;28;941;-84
2022/07/05 11:59:16;;;;;;;;;;;;;;;22.94;28.74;97992.50;4975625;28;910;-83
2022/07/05 12:01:45;;;;;;;;;;;;;;;23.04;28.51;97994.22;4955992;29;900;-83
2022/07/05 12:04:10;;;;;;;;;;;;;;;23.10;28.51;97993.22;4939629;29;1743;-84
2022/07/05 12:06:42;;;;;;;;;;;;;;;22.88;28.81;97998.75;4921559;29;1911;-84
2022/07/05 12:09:07;;;;;;;;;;;;;;;23.08;28.51;97997.72;4937192;29;1222;-83
2022/07/05 12:14:21;;;;;;;;;;;;;;;22.82;28.51;97994.09;4952994;28;1223;-83
2022/07/05 12:16:46;;;;;;;;;;;;;;;22.83;28.79;97985.09;4952048;29;1350;-83
2022/07/05 12:19:11;;;;;;;;;;;;;;;22.83;28.59;97987.16;4936857;29;908;-84
2022/07/05 12:21:37;;;;;;;;;;;;;;;22.87;28.50;97990.69;4960490;28;922;-84
2022/07/05 12:24:02;;;;;;;;;;;;;;;22.96;28.30;97990.81;4940224;29;942;-83
2022/07/05 12:26:28;;;;;;;;;;;;;;;23.02;28.16;97979.69;4956254;29;1914;-83
2022/07/05 12:28:53;;;;;;;;;;;;;;;22.93;28.33;97988.09;4971989;28;1407;-84
2022/07/05 12:31:20;;;;;;;;;;;;;;;22.84;28.35;97992.38;4955645;29;1610;-82
2022/07/05 12:37:23;;;;;;;;;;;;;;;22.86;28.45;97989.09;5009002;28;919;-84
2022/07/05 12:39:49;;;;;;;;;;;;;;;23.06;27.80;97986.06;5001495;28;891;-84
2022/07/05 12:42:33;;;;;;;;;;;;;;;23.01;28.09;97986.63;5001608;28;1095;-84
2022/07/05 12:45:31;;;;;;;;;;;;;;;22.60;28.42;97983.41;5034480;28;1262;-84
2022/07/05 12:47:57;;;;;;;;;;;;;;;22.80;28.18;97988.88;5010173;28;1470;-84
2022/07/05 12:50:25;;;;;;;;;;;;;;;22.92;27.92;97980.84;5017600;28;933;-84
2022/07/05 12:58:01;;;;;;;;;;;;;;;22.73;28.39;97983.41;5033433;28;945;-84
2022/07/05 12:58:48;;;;;;;;;;;;;;;22.74;28.38;97976.50;5031511;28;1011;-84
2022/07/05 13:01:20;;;;;;;;;;;;;;;22.71;28.23;97970.94;5032457;28;1348;-83
2022/07/05 13:04:01;;;;;;;;;;;;;;;22.87;28.15;97974.44;5033844;28;1070;-84
2022/07/05 13:06:42;;;;;;;;;;;;;;;22.35;28.91;97978.50;5017281;28;1902;-84
2022/07/05 13:09:08;;;;;;;;;;;;;;;22.57;28.77;97983.50;5000755;28;972;-84
2022/07/05 13:11:33;;;;;;;;;;;;;;;22.50;28.70;97975.22;5017229;28;828;-84
2022/07/05 13:13:59;;;;;;;;;;;;;;;22.90;27.83;97969.13;5002186;28;954;-84
2022/07/05 13:16:24;;;;;;;;;;;;;;;22.71;28.26;97971.72;4977247;28;1446;-85
2022/07/05 13:18:49;;;;;;;;;;;;;;;22.81;27.96;97970.59;4978128;28;864;-85